Aitkin, Minnesota
Current Conditions -  °F | °C
As of 2:13 AM on Thursday 29 Jan 2015 (Local Time) from KAIT Reporting Station
Light Snow Light Snow  
Wind Chill: 26°   Ceiling: 2600
Heat Index: 34°   Visibility: 5mi
Dew Point: 28°   Wind: 10mph
Humidity: 81%   Direction: 310°NW
Pressure: 29.89"   Gusts: 17mph
Location:  46.53°N, 93.71°W
Report Text: KAIT 290813Z AUTO 31009G15KT 280V340 5SM -SN SCT014 OVC026 01/M02 A2989 RMK AO2
Loading
Personal Weather Stations






























Interactive Weather Map New forecast layout! Learn more

10-Day Weather Forecast

Advertisements
Track Severe Weather on mobile